メインページ
METAR-TAF:

METAR-TAF

空港 :

Chibougamau, ケベック州, カナダ

緯度: 49-46N, 経度: 074-32W, 海抜: 388m

現時点の気象観測

当レポートは55分前の04:00(UTC)に作成
南東の風 6kt
気温 4°C
湿度 75%
気圧 1019 hPa
視程: 14.5km
高度4800ftの曇り

METAR: CYMT 040400Z AUTO 14006KT 9SM OVC048 04/M00 A3009 RMK SLP206

時間: 00:55 (04:55 UTC)

予報

当レポートは11時間17分前の17:38(UTC)に作成
予報は03日の 18時(UTC)から 03日の 24時(UTC)まで有効
南東の風 12kt、最大22ktの突風を伴う
視程: 10km
高度1500ftの雲はほとんどない
高度6000ftの千切れ雲あり
03日の 18時(UTC)から 03日の 24時(UTC)まで一時的に
高度1500ftの千切れ雲あり
高度6000ftの千切れ雲あり

TAF: CYMT 031738Z 0318/0324 13012G22KT P6SM FEW015 BKN060 TEMPO 0318/0324 BKN015 BKN060 RMK FCST BASED ON AUTO OBS. NXT FCST WILL BE ISSUED AT 041145Z

4,000以上の空港の気象観測と天気予報(METAR報とTAF報)

利用可能な観測所は地図上に黄色い丸と赤い丸で示す。

丸の上にカーソルを重ねると観測所名を参照できる。

次にクリックすると気象観測と天気予報を参照できる。

マップの切り替え:黒色「×」印の緑ボタンをクリックして拡大、「-」印の緑ボタンをクリックして縮小、緑色の三角印をクリックして隣りの地図に切り替え


METAR-TAF: